Time;durP1;ratioP1;P1;durP2;ratioP2;P2;SDS_P1;SDS_P2;PMS_P1;PMS_P2;Temp;Humidity;BMP_temperature;BMP_pressure;BME280_temperature;BME280_humidity;BME280_pressure;Samples;Min_cycle;Max_cycle;Signal;HPM_P1;HPM_P2
2023/07/01 00:01:22;;;;;;;;;;;;;;;27.18;36.10;100300.60;104672;1287;61265;-83
2023/07/01 00:03:47;;;;;;;;;;;;;;;27.17;35.93;100298.50;104471;1286;59995;-83
2023/07/01 00:06:13;;;;;;;;;;;;;;;27.18;35.83;100303.52;104518;1286;61260;-83
2023/07/01 00:08:40;;;;;;;;;;;;;;;27.18;36.08;100302.79;105056;1287;62167;-83
2023/07/01 00:11:06;;;;;;;;;;;;;;;27.17;36.17;100302.50;104815;1290;61290;-83
2023/07/01 00:13:32;;;;;;;;;;;;;;;27.17;36.08;100302.84;104886;1286;61322;-83
2023/07/01 00:15:57;;;;;;;;;;;;;;;27.17;36.06;100304.13;104639;1286;61396;-83
2023/07/01 00:18:23;;;;;;;;;;;;;;;27.17;36.05;100302.66;104788;1290;60086;-83
2023/07/01 00:20:49;;;;;;;;;;;;;;;27.17;36.14;100300.86;104629;1287;61378;-83
2023/07/01 00:23:15;;;;;;;;;;;;;;;27.17;36.39;100296.19;104507;1287;60082;-83
2023/07/01 00:25:40;;;;;;;;;;;;;;;27.17;36.16;100301.95;104589;1287;62171;-83
2023/07/01 00:28:05;;;;;;;;;;;;;;;27.17;36.32;100298.77;105050;1286;60104;-83
2023/07/01 00:30:32;;;;;;;;;;;;;;;27.17;36.30;100298.04;104784;1289;60011;-83
2023/07/01 00:32:57;;;;;;;;;;;;;;;27.17;36.24;100295.66;104911;1286;61405;-83
2023/07/01 00:35:23;;;;;;;;;;;;;;;27.17;36.20;100291.90;104964;1287;61402;-83
2023/07/01 00:37:48;;;;;;;;;;;;;;;27.16;36.13;100290.30;104986;1285;61366;-83
2023/07/01 00:40:13;;;;;;;;;;;;;;;27.16;36.31;100291.96;104900;1286;59835;-83
2023/07/01 00:42:39;;;;;;;;;;;;;;;27.16;36.10;100289.45;104899;1286;61234;-83
2023/07/01 00:45:05;;;;;;;;;;;;;;;27.16;36.07;100288.88;104338;1287;60091;-83
2023/07/01 00:47:30;;;;;;;;;;;;;;;27.16;36.37;100288.90;104143;1286;62405;-83
2023/07/01 00:49:56;;;;;;;;;;;;;;;27.16;36.39;100289.81;104573;1286;59911;-83
2023/07/01 00:52:21;;;;;;;;;;;;;;;27.16;36.39;100291.48;104511;1286;61306;-83
2023/07/01 00:54:47;;;;;;;;;;;;;;;27.16;36.51;100299.61;104344;1286;60148;-83
2023/07/01 00:57:12;;;;;;;;;;;;;;;27.15;36.33;100298.35;104449;1286;59996;-83
2023/07/01 00:59:38;;;;;;;;;;;;;;;27.15;36.20;100293.52;104453;1290;61405;-83
2023/07/01 01:02:04;;;;;;;;;;;;;;;27.15;36.24;100294.66;104610;1285;60054;-83
2023/07/01 01:04:33;;;;;;;;;;;;;;;27.15;36.30;100298.05;104380;1286;59977;-83
2023/07/01 01:07:03;;;;;;;;;;;;;;;27.15;36.27;100300.45;104345;1286;62783;-83
2023/07/01 01:09:38;;;;;;;;;;;;;;;27.14;36.38;100301.91;104880;1286;65949;-83
2023/07/01 01:12:05;;;;;;;;;;;;;;;27.14;36.44;100300.65;104942;1287;60073;-83
2023/07/01 01:14:33;;;;;;;;;;;;;;;27.14;36.47;100300.86;104359;1287;61335;-83
2023/07/01 01:16:59;;;;;;;;;;;;;;;27.14;36.50;100298.52;104703;1286;63668;-83
2023/07/01 01:19:24;;;;;;;;;;;;;;;27.14;36.31;100294.21;104665;1286;61376;-83
2023/07/01 01:21:52;;;;;;;;;;;;;;;27.14;36.39;100296.55;104366;1284;60001;-83
2023/07/01 01:24:18;;;;;;;;;;;;;;;27.13;36.69;100292.29;104391;1286;61393;-83
2023/07/01 01:26:43;;;;;;;;;;;;;;;27.13;36.44;100289.72;104541;1288;60108;-83
2023/07/01 01:29:09;;;;;;;;;;;;;;;27.13;36.46;100290.29;104370;1290;60097;-83
2023/07/01 01:31:34;;;;;;;;;;;;;;;27.13;36.67;100289.75;104726;1287;62183;-83
2023/07/01 01:34:00;;;;;;;;;;;;;;;27.13;36.65;100286.66;104510;1285;61425;-83
2023/07/01 01:36:45;;;;;;;;;;;;;;;27.13;36.47;100285.83;104361;1286;61373;-83
2023/07/01 01:39:11;;;;;;;;;;;;;;;27.13;36.59;100285.24;104071;1291;63911;-83
2023/07/01 01:41:41;;;;;;;;;;;;;;;27.13;36.65;100282.94;104015;1291;61882;-83
2023/07/01 01:44:10;;;;;;;;;;;;;;;27.12;36.61;100279.02;104033;1291;60060;-83
2023/07/01 01:46:36;;;;;;;;;;;;;;;27.12;36.73;100280.66;104232;1290;60163;-83
2023/07/01 01:49:03;;;;;;;;;;;;;;;27.12;36.78;100279.75;103862;1291;61389;-83
2023/07/01 01:51:29;;;;;;;;;;;;;;;27.12;36.67;100275.08;103973;1291;61285;-83
2023/07/01 01:53:54;;;;;;;;;;;;;;;27.12;36.84;100273.45;104214;1291;59307;-83
2023/07/01 01:56:20;;;;;;;;;;;;;;;27.12;36.77;100268.94;104230;1294;60105;-83
2023/07/01 01:58:47;;;;;;;;;;;;;;;27.11;36.81;100267.17;104150;1289;61403;-83
2023/07/01 02:01:13;;;;;;;;;;;;;;;27.11;36.87;100266.84;104097;1292;61346;-83
2023/07/01 02:03:38;;;;;;;;;;;;;;;27.12;36.77;100271.69;104409;1290;61260;-83
2023/07/01 02:06:04;;;;;;;;;;;;;;;27.11;36.78;100269.92;104071;1289;60036;-83
2023/07/01 02:08:30;;;;;;;;;;;;;;;27.11;36.79;100269.01;104156;1291;62039;-83
2023/07/01 02:10:56;;;;;;;;;;;;;;;27.11;36.85;100273.14;104270;1291;63658;-83
2023/07/01 02:13:21;;;;;;;;;;;;;;;27.10;36.78;100270.66;104246;1289;61369;-83
2023/07/01 02:15:46;;;;;;;;;;;;;;;27.11;36.71;100265.79;104022;1291;62483;-83
2023/07/01 02:18:12;;;;;;;;;;;;;;;27.10;36.79;100268.33;104763;1284;60098;-83
2023/07/01 02:20:37;;;;;;;;;;;;;;;27.10;36.81;100273.98;104760;1288;61377;-83
2023/07/01 02:23:03;;;;;;;;;;;;;;;27.10;36.79;100273.95;104739;1284;61346;-83
2023/07/01 02:25:28;;;;;;;;;;;;;;;27.10;36.68;100273.61;104646;1288;59991;-83
2023/07/01 02:27:54;;;;;;;;;;;;;;;27.10;36.82;100276.52;104611;1285;60176;-83
2023/07/01 02:30:19;;;;;;;;;;;;;;;27.10;36.91;100278.70;104702;1285;59987;-83
2023/07/01 02:32:44;;;;;;;;;;;;;;;27.09;36.65;100281.60;104537;1289;60153;-83
2023/07/01 02:35:10;;;;;;;;;;;;;;;27.09;36.74;100282.89;104708;1285;62366;-83
2023/07/01 02:37:35;;;;;;;;;;;;;;;27.09;36.93;100289.19;104875;1284;61252;-83
2023/07/01 02:40:04;;;;;;;;;;;;;;;27.10;37.00;100294.98;104684;1284;60115;-83
2023/07/01 02:42:31;;;;;;;;;;;;;;;27.09;36.90;100290.85;104758;1285;59978;-83
2023/07/01 02:44:57;;;;;;;;;;;;;;;27.09;37.08;100287.60;104607;1284;64723;-83
2023/07/01 02:47:22;;;;;;;;;;;;;;;27.09;37.07;100288.52;104533;1284;61365;-83
2023/07/01 02:49:49;;;;;;;;;;;;;;;27.09;36.82;100285.63;104431;1288;61387;-83
2023/07/01 02:52:15;;;;;;;;;;;;;;;27.09;36.97;100284.91;104513;1284;61428;-83
2023/07/01 02:54:40;;;;;;;;;;;;;;;27.09;37.03;100282.95;104718;1283;61373;-83
2023/07/01 02:57:07;;;;;;;;;;;;;;;27.09;36.93;100286.75;104521;1284;61347;-83
2023/07/01 02:59:32;;;;;;;;;;;;;;;27.08;36.98;100286.42;104191;1289;61367;-83
2023/07/01 03:01:58;;;;;;;;;;;;;;;27.08;37.19;100291.88;104714;1284;60099;-83
2023/07/01 03:04:23;;;;;;;;;;;;;;;27.08;37.17;100293.85;104827;1284;60153;-83
2023/07/01 03:06:49;;;;;;;;;;;;;;;27.08;37.23;100298.39;104672;1286;61341;-83
2023/07/01 03:09:14;;;;;;;;;;;;;;;27.08;37.05;100300.52;104532;1285;62269;-83
2023/07/01 03:11:41;;;;;;;;;;;;;;;27.08;37.14;100303.81;104702;1284;60057;-83
2023/07/01 03:14:06;;;;;;;;;;;;;;;27.08;37.31;100301.46;104685;1285;61475;-83
2023/07/01 03:16:32;;;;;;;;;;;;;;;27.08;37.27;100304.68;104603;1287;61309;-83
2023/07/01 03:18:58;;;;;;;;;;;;;;;27.08;37.34;100302.55;104499;1289;61461;-83
2023/07/01 03:21:24;;;;;;;;;;;;;;;27.07;37.42;100308.55;104725;1284;62336;-83
2023/07/01 03:23:49;;;;;;;;;;;;;;;27.07;37.51;100304.08;104761;1285;59866;-84
2023/07/01 03:26:16;;;;;;;;;;;;;;;27.08;37.47;100302.05;104408;1286;60508;-84
2023/07/01 03:28:42;;;;;;;;;;;;;;;27.07;37.62;100299.17;104730;1286;60018;-84
2023/07/01 03:31:08;;;;;;;;;;;;;;;27.08;37.32;100304.19;104624;1287;62385;-84
2023/07/01 03:33:34;;;;;;;;;;;;;;;27.08;37.58;100300.91;104387;1285;61261;-83
2023/07/01 03:36:00;;;;;;;;;;;;;;;27.08;37.46;100299.88;104322;1286;60074;-83
2023/07/01 03:38:25;;;;;;;;;;;;;;;27.07;37.49;100297.75;104333;1286;61408;-83
2023/07/01 03:40:51;;;;;;;;;;;;;;;27.07;37.38;100297.21;104696;1285;61378;-83
2023/07/01 03:43:17;;;;;;;;;;;;;;;27.07;37.37;100299.71;104442;1284;61390;-83
2023/07/01 03:45:42;;;;;;;;;;;;;;;27.08;37.45;100302.39;104747;1287;61257;-83
2023/07/01 03:48:08;;;;;;;;;;;;;;;27.07;37.55;100303.52;104530;1285;62309;-83
2023/07/01 03:50:33;;;;;;;;;;;;;;;27.08;37.66;100304.39;104666;1284;59733;-83
2023/07/01 03:52:58;;;;;;;;;;;;;;;27.07;37.68;100306.95;104747;1285;64521;-83
2023/07/01 03:55:25;;;;;;;;;;;;;;;27.08;37.56;100308.89;104559;1287;62323;-83
2023/07/01 03:57:50;;;;;;;;;;;;;;;27.08;37.49;100310.89;104631;1285;61389;-83
2023/07/01 04:00:19;;;;;;;;;;;;;;;27.08;37.60;100309.45;104748;1284;60266;-83
2023/07/01 04:02:50;;;;;;;;;;;;;;;27.07;37.79;100305.86;104668;1284;63939;-83
2023/07/01 04:05:15;;;;;;;;;;;;;;;27.08;37.47;100311.77;104658;1286;67127;-83
2023/07/01 04:07:41;;;;;;;;;;;;;;;27.07;37.60;100312.71;104578;1285;61369;-83
2023/07/01 04:10:07;;;;;;;;;;;;;;;27.08;37.62;100311.59;104831;1284;61300;-83
2023/07/01 04:12:33;;;;;;;;;;;;;;;27.08;37.74;100308.67;104460;1284;62298;-83
2023/07/01 04:14:58;;;;;;;;;;;;;;;27.08;37.69;100308.85;104620;1284;61271;-83
2023/07/01 04:17:24;;;;;;;;;;;;;;;27.08;37.64;100309.19;104640;1285;61459;-83
2023/07/01 04:19:49;;;;;;;;;;;;;;;27.09;37.64;100305.91;104477;1286;61268;-83
2023/07/01 04:22:15;;;;;;;;;;;;;;;27.09;37.77;100308.23;104598;1286;61389;-83
2023/07/01 04:24:40;;;;;;;;;;;;;;;27.09;37.68;100310.73;104654;1285;60098;-83
2023/07/01 04:27:05;;;;;;;;;;;;;;;27.10;37.81;100313.58;104891;1284;61347;-83
2023/07/01 04:29:31;;;;;;;;;;;;;;;27.10;37.66;100313.31;104578;1289;59919;-83
2023/07/01 04:31:56;;;;;;;;;;;;;;;27.11;37.71;100310.70;104393;1286;60051;-83
2023/07/01 04:34:22;;;;;;;;;;;;;;;27.12;37.80;100311.38;104728;1286;61403;-83
2023/07/01 04:36:47;;;;;;;;;;;;;;;27.12;37.88;100309.75;104353;1289;59985;-83
2023/07/01 04:39:14;;;;;;;;;;;;;;;27.12;37.86;100309.52;104597;1288;61381;-83
2023/07/01 04:41:39;;;;;;;;;;;;;;;27.13;37.80;100308.55;104602;1288;61475;-83
2023/07/01 04:44:05;;;;;;;;;;;;;;;27.14;37.74;100306.14;104715;1284;61377;-83
2023/07/01 04:46:32;;;;;;;;;;;;;;;27.15;37.74;100300.42;104701;1288;61345;-83
2023/07/01 04:48:59;;;;;;;;;;;;;;;27.16;37.99;100294.73;104427;1288;60012;-83
2023/07/01 04:51:25;;;;;;;;;;;;;;;27.17;37.90;100291.73;104445;1285;66742;-83
2023/07/01 04:53:50;;;;;;;;;;;;;;;27.18;37.79;100295.25;104448;1286;61438;-83
2023/07/01 04:56:16;;;;;;;;;;;;;;;27.19;38.08;100294.38;104395;1285;62300;-83
2023/07/01 04:58:41;;;;;;;;;;;;;;;27.20;37.85;100291.71;104259;1288;60005;-83
2023/07/01 05:01:07;;;;;;;;;;;;;;;27.21;38.04;100293.20;104455;1285;61336;-83
2023/07/01 05:03:32;;;;;;;;;;;;;;;27.22;38.13;100294.00;104383;1287;61339;-83
2023/07/01 05:05:58;;;;;;;;;;;;;;;27.24;37.96;100291.86;104621;1284;62220;-83
2023/07/01 05:08:23;;;;;;;;;;;;;;;27.25;38.02;100292.48;104411;1285;61250;-84
2023/07/01 05:10:50;;;;;;;;;;;;;;;27.26;38.09;100295.44;104431;1284;60309;-84
2023/07/01 05:13:15;;;;;;;;;;;;;;;27.27;38.13;100295.91;104640;1284;59877;-84
2023/07/01 05:15:41;;;;;;;;;;;;;;;27.29;38.02;100302.40;104666;1284;61466;-84
2023/07/01 05:18:07;;;;;;;;;;;;;;;27.29;38.25;100301.60;104305;1286;61406;-84
2023/07/01 05:20:33;;;;;;;;;;;;;;;27.30;38.19;100301.67;104408;1284;59900;-83
2023/07/01 05:22:59;;;;;;;;;;;;;;;27.32;38.32;100300.66;104312;1284;61424;-83
2023/07/01 05:25:25;;;;;;;;;;;;;;;27.32;38.33;100301.28;104486;1288;62305;-83
2023/07/01 05:27:50;;;;;;;;;;;;;;;27.34;38.18;100302.05;104440;1284;61427;-83
2023/07/01 05:30:16;;;;;;;;;;;;;;;27.34;38.37;100302.13;104289;1284;61347;-83
2023/07/01 05:32:41;;;;;;;;;;;;;;;27.35;38.11;100304.20;104555;1284;61387;-83
2023/07/01 05:35:07;;;;;;;;;;;;;;;27.36;38.25;100305.36;104508;1286;60024;-83
2023/07/01 05:37:32;;;;;;;;;;;;;;;27.37;38.32;100302.96;104679;1284;61337;-83
2023/07/01 05:39:58;;;;;;;;;;;;;;;27.38;38.27;100302.45;104304;1284;61469;-83
2023/07/01 05:42:23;;;;;;;;;;;;;;;27.39;38.31;100304.70;104348;1284;61409;-83
2023/07/01 05:44:48;;;;;;;;;;;;;;;27.40;38.20;100309.31;104635;1285;61396;-83
2023/07/01 05:47:14;;;;;;;;;;;;;;;27.41;38.39;100316.25;104524;1284;60413;-83
2023/07/01 05:49:39;;;;;;;;;;;;;;;27.42;38.32;100310.23;104267;1285;61514;-83
2023/07/01 05:52:05;;;;;;;;;;;;;;;27.42;38.52;100308.70;104575;1285;61462;-83
2023/07/01 05:54:30;;;;;;;;;;;;;;;27.44;38.38;100302.64;104774;1288;59391;-83
2023/07/01 05:56:56;;;;;;;;;;;;;;;27.45;38.25;100301.96;104667;1284;59891;-83
2023/07/01 05:59:21;;;;;;;;;;;;;;;27.45;38.56;100298.68;104508;1285;59710;-83
2023/07/01 06:01:46;;;;;;;;;;;;;;;27.47;38.36;100297.46;104533;1288;62413;-83
2023/07/01 06:04:12;;;;;;;;;;;;;;;27.47;38.51;100296.65;104543;1284;61343;-83
2023/07/01 06:06:39;;;;;;;;;;;;;;;27.48;38.58;100296.02;104570;1284;61458;-83
2023/07/01 06:09:08;;;;;;;;;;;;;;;27.49;38.32;100300.11;104484;1284;61384;-83
2023/07/01 06:11:34;;;;;;;;;;;;;;;27.49;38.28;100303.31;104512;1285;64866;-83
2023/07/01 06:14:02;;;;;;;;;;;;;;;27.50;38.42;100305.38;104548;1284;61601;-83
2023/07/01 06:16:27;;;;;;;;;;;;;;;27.51;38.60;100303.14;104534;1284;60085;-83
2023/07/01 06:18:53;;;;;;;;;;;;;;;27.51;38.35;100302.39;104231;1284;61572;-83
2023/07/01 06:21:19;;;;;;;;;;;;;;;27.52;38.43;100303.05;104478;1285;61310;-83
2023/07/01 06:23:45;;;;;;;;;;;;;;;27.52;38.59;100299.72;104470;1284;62270;-83
2023/07/01 06:26:12;;;;;;;;;;;;;;;27.53;38.48;100297.90;104507;1284;61473;-83
2023/07/01 06:28:37;;;;;;;;;;;;;;;27.53;38.31;100299.63;104573;1284;61123;-83
2023/07/01 06:31:03;;;;;;;;;;;;;;;27.53;38.44;100304.48;104408;1284;62314;-83
2023/07/01 06:33:28;;;;;;;;;;;;;;;27.54;38.48;100301.21;104585;1284;60054;-83
2023/07/01 06:35:54;;;;;;;;;;;;;;;27.54;38.66;100297.90;104354;1284;60100;-83
2023/07/01 06:38:19;;;;;;;;;;;;;;;27.55;38.57;100299.13;104365;1285;61378;-83
2023/07/01 06:40:45;;;;;;;;;;;;;;;27.55;38.60;100300.55;104544;1285;59089;-83
2023/07/01 06:43:12;;;;;;;;;;;;;;;27.55;38.76;100302.64;104581;1284;61639;-83
2023/07/01 06:45:38;;;;;;;;;;;;;;;27.56;38.74;100302.08;104400;1284;61613;-83
2023/07/01 06:48:03;;;;;;;;;;;;;;;27.56;38.46;100300.92;104472;1283;60059;-83
2023/07/01 06:50:29;;;;;;;;;;;;;;;27.56;38.67;100302.89;104383;1286;61392;-83
2023/07/01 06:52:54;;;;;;;;;;;;;;;27.57;38.50;100306.66;104307;1288;61302;-83
2023/07/01 06:55:20;;;;;;;;;;;;;;;27.57;38.58;100300.86;104442;1284;60378;-83
2023/07/01 06:57:45;;;;;;;;;;;;;;;27.57;38.41;100301.02;104427;1285;61340;-83
2023/07/01 07:00:12;;;;;;;;;;;;;;;27.58;38.48;100301.13;104577;1285;62267;-83
2023/07/01 07:02:37;;;;;;;;;;;;;;;27.58;38.73;100296.41;104541;1284;62396;-83
2023/07/01 07:05:03;;;;;;;;;;;;;;;27.58;38.46;100292.05;104543;1287;60053;-83
2023/07/01 07:07:30;;;;;;;;;;;;;;;27.58;38.49;100291.48;104428;1286;63645;-83
2023/07/01 07:09:55;;;;;;;;;;;;;;;27.58;38.52;100293.31;103933;1289;616781;-83
2023/07/01 07:12:20;;;;;;;;;;;;;;;27.57;38.74;100295.54;104435;1285;62316;-83
2023/07/01 07:14:46;;;;;;;;;;;;;;;27.58;38.52;100295.10;104568;1286;62152;-83
2023/07/01 07:17:11;;;;;;;;;;;;;;;27.59;38.55;100294.52;104611;1290;61368;-83
2023/07/01 07:19:37;;;;;;;;;;;;;;;27.58;38.50;100290.94;104311;1286;61402;-83
2023/07/01 07:22:03;;;;;;;;;;;;;;;27.59;38.57;100291.61;104511;1286;61361;-83
2023/07/01 07:24:28;;;;;;;;;;;;;;;27.59;38.38;100295.41;104566;1285;61351;-83
2023/07/01 07:26:57;;;;;;;;;;;;;;;27.59;38.57;100295.78;104314;1286;61458;-83
2023/07/01 07:29:23;;;;;;;;;;;;;;;27.59;38.64;100295.95;104230;1287;61374;-83
2023/07/01 07:31:49;;;;;;;;;;;;;;;27.59;38.49;100289.58;104306;1286;61388;-83
2023/07/01 07:34:14;;;;;;;;;;;;;;;27.59;38.52;100285.63;104441;1286;59981;-83
2023/07/01 07:36:40;;;;;;;;;;;;;;;27.59;38.65;100285.26;104259;1290;61396;-83
2023/07/01 07:39:06;;;;;;;;;;;;;;;27.59;38.61;100282.17;104263;1287;61914;-83
2023/07/01 07:41:32;;;;;;;;;;;;;;;27.59;38.64;100278.57;104264;1286;64755;-83
2023/07/01 07:43:57;;;;;;;;;;;;;;;27.59;38.89;100279.28;103980;1290;61292;-83
2023/07/01 07:46:22;;;;;;;;;;;;;;;27.59;38.58;100280.51;104170;1286;61391;-83
2023/07/01 07:48:49;;;;;;;;;;;;;;;27.59;38.49;100276.38;104280;1285;61389;-83
2023/07/01 07:51:14;;;;;;;;;;;;;;;27.60;38.58;100278.70;104208;1286;59971;-83
2023/07/01 07:53:40;;;;;;;;;;;;;;;27.59;38.38;100276.04;104130;1287;61396;-83
2023/07/01 07:56:05;;;;;;;;;;;;;;;27.59;38.49;100276.91;103931;1287;66526;-83
2023/07/01 07:58:31;;;;;;;;;;;;;;;27.59;38.52;100272.61;103994;1286;62251;-83
2023/07/01 08:00:56;;;;;;;;;;;;;;;27.59;38.38;100269.89;104165;1287;60037;-83
2023/07/01 08:03:22;;;;;;;;;;;;;;;27.59;38.61;100270.58;103923;1287;61483;-83
2023/07/01 08:05:50;;;;;;;;;;;;;;;27.59;38.39;100269.52;104072;1287;61339;-83
2023/07/01 08:08:15;;;;;;;;;;;;;;;27.59;38.58;100268.06;104252;1287;66719;-83
2023/07/01 08:10:45;;;;;;;;;;;;;;;27.59;38.41;100268.98;104093;1287;60364;-83
2023/07/01 08:13:14;;;;;;;;;;;;;;;27.59;38.26;100271.16;104112;1287;59918;-83
2023/07/01 08:15:41;;;;;;;;;;;;;;;27.59;38.55;100268.08;103932;1286;64829;-83
2023/07/01 08:18:06;;;;;;;;;;;;;;;27.60;38.57;100267.65;104230;1287;61356;-83
2023/07/01 08:20:31;;;;;;;;;;;;;;;27.59;38.31;100271.31;103940;1287;62285;-83
2023/07/01 08:22:57;;;;;;;;;;;;;;;27.59;38.36;100268.98;104080;1287;59940;-83
2023/07/01 08:25:22;;;;;;;;;;;;;;;27.59;38.54;100269.33;104205;1286;61402;-83
2023/07/01 08:27:48;;;;;;;;;;;;;;;27.59;38.32;100262.85;104471;1286;61401;-83
2023/07/01 08:30:14;;;;;;;;;;;;;;;27.60;38.50;100256.81;104141;1286;62414;-84
2023/07/01 08:32:40;;;;;;;;;;;;;;;27.59;38.21;100257.02;104213;1286;61232;-84
2023/07/01 08:35:06;;;;;;;;;;;;;;;27.59;38.43;100256.68;104193;1286;61417;-84
2023/07/01 08:37:31;;;;;;;;;;;;;;;27.60;38.46;100253.90;104216;1285;61789;-84
2023/07/01 08:39:57;;;;;;;;;;;;;;;27.59;38.53;100255.05;104136;1286;61403;-84
2023/07/01 08:42:22;;;;;;;;;;;;;;;27.60;38.56;100257.73;104234;1286;59997;-84
2023/07/01 08:44:48;;;;;;;;;;;;;;;27.59;38.46;100253.05;104265;1286;61258;-84
2023/07/01 08:47:13;;;;;;;;;;;;;;;27.59;38.47;100251.05;104304;1286;61379;-83
2023/07/01 08:49:39;;;;;;;;;;;;;;;27.59;38.54;100249.42;104179;1291;61455;-83
2023/07/01 08:52:07;;;;;;;;;;;;;;;27.60;38.48;100255.90;104132;1286;62202;-83
2023/07/01 08:54:33;;;;;;;;;;;;;;;27.60;38.35;100251.04;104167;1286;61391;-83
2023/07/01 08:56:59;;;;;;;;;;;;;;;27.59;38.35;100247.63;104446;1287;59239;-83
2023/07/01 08:59:25;;;;;;;;;;;;;;;27.60;38.45;100245.96;104381;1287;62170;-83
2023/07/01 09:01:50;;;;;;;;;;;;;;;27.59;38.41;100248.52;104057;1286;62218;-83
2023/07/01 09:04:15;;;;;;;;;;;;;;;27.60;38.51;100247.23;104154;1290;60089;-83
2023/07/01 09:06:41;;;;;;;;;;;;;;;27.60;38.24;100246.81;104205;1286;61357;-83
2023/07/01 09:09:06;;;;;;;;;;;;;;;27.60;38.25;100245.60;104332;1286;61262;-83
2023/07/01 09:11:32;;;;;;;;;;;;;;;27.60;38.25;100249.21;104161;1286;59998;-83
2023/07/01 09:13:58;;;;;;;;;;;;;;;27.59;38.43;100242.55;104129;1286;61392;-83
2023/07/01 09:16:34;;;;;;;;;;;;;;;27.59;38.43;100237.52;104299;1286;61166;-83
2023/07/01 09:19:07;;;;;;;;;;;;;;;27.59;38.37;100242.58;104372;1286;61436;-83
2023/07/01 09:21:32;;;;;;;;;;;;;;;27.59;38.58;100240.07;104239;1286;63611;-83
2023/07/01 09:24:01;;;;;;;;;;;;;;;27.59;38.46;100230.30;103989;1286;61083;-83
2023/07/01 09:26:29;;;;;;;;;;;;;;;27.59;38.27;100225.46;104161;1286;61234;-83
2023/07/01 09:28:56;;;;;;;;;;;;;;;27.60;38.40;100225.02;104246;1286;60167;-83
2023/07/01 09:31:21;;;;;;;;;;;;;;;27.60;38.49;100221.02;104301;1286;61380;-83
2023/07/01 09:34:05;;;;;;;;;;;;;;;27.59;38.57;100220.89;104270;1286;62143;-83
2023/07/01 09:36:32;;;;;;;;;;;;;;;27.59;38.36;100219.64;104077;1287;61300;-83
2023/07/01 09:38:57;;;;;;;;;;;;;;;27.59;38.30;100219.10;104357;1286;61252;-83
2023/07/01 09:41:26;;;;;;;;;;;;;;;27.58;38.30;100215.56;104322;1287;61261;-83
2023/07/01 09:43:55;;;;;;;;;;;;;;;27.59;38.34;100211.19;104302;1286;66671;-83
2023/07/01 09:46:21;;;;;;;;;;;;;;;27.59;38.27;100214.81;104209;1285;59265;-83
2023/07/01 09:48:53;;;;;;;;;;;;;;;27.58;38.24;100209.40;104209;1286;61248;-83
2023/07/01 09:51:19;;;;;;;;;;;;;;;27.58;38.32;100205.44;104184;1286;63839;-83
2023/07/01 09:53:44;;;;;;;;;;;;;;;27.58;38.47;100202.38;104410;1286;61459;-83
2023/07/01 09:56:10;;;;;;;;;;;;;;;27.58;38.29;100200.77;104199;1284;60034;-83
2023/07/01 09:58:35;;;;;;;;;;;;;;;27.58;38.43;100192.65;104246;1285;61431;-83
2023/07/01 10:01:01;;;;;;;;;;;;;;;27.58;38.28;100190.48;104435;1287;61383;-83
2023/07/01 10:03:28;;;;;;;;;;;;;;;27.58;38.38;100188.34;104253;1286;61365;-83
2023/07/01 10:05:54;;;;;;;;;;;;;;;27.57;38.25;100189.64;104316;1286;65669;-84
2023/07/01 10:08:19;;;;;;;;;;;;;;;27.58;38.53;100187.77;104307;1286;61437;-84
2023/07/01 10:10:48;;;;;;;;;;;;;;;27.58;38.37;100189.23;104252;1285;59996;-84
2023/07/01 10:13:13;;;;;;;;;;;;;;;27.58;38.25;100188.14;104349;1285;63850;-84
2023/07/01 10:15:39;;;;;;;;;;;;;;;27.57;38.41;100181.70;104194;1287;61306;-84
2023/07/01 10:18:20;;;;;;;;;;;;;;;27.57;38.38;100184.08;104123;1286;61448;-83
2023/07/01 10:20:46;;;;;;;;;;;;;;;27.57;38.37;100184.45;104266;1286;61334;-83
2023/07/01 10:23:11;;;;;;;;;;;;;;;27.57;38.44;100179.02;104508;1286;60103;-83
2023/07/01 10:25:38;;;;;;;;;;;;;;;27.57;38.23;100178.66;104313;1286;61377;-83
2023/07/01 10:28:24;;;;;;;;;;;;;;;27.56;38.23;100175.46;104278;1286;61286;-83
2023/07/01 10:30:49;;;;;;;;;;;;;;;27.56;38.49;100170.21;104075;1289;60047;-83
2023/07/01 10:33:27;;;;;;;;;;;;;;;27.56;38.46;100167.94;104094;1289;61408;-83
2023/07/01 10:36:02;;;;;;;;;;;;;;;27.56;38.54;100167.56;103659;1289;65860;-83
2023/07/01 10:38:30;;;;;;;;;;;;;;;27.56;38.32;100169.34;103857;1289;61404;-83
2023/07/01 10:40:55;;;;;;;;;;;;;;;27.56;38.21;100165.23;103891;1289;59906;-83
2023/07/01 10:43:30;;;;;;;;;;;;;;;27.56;38.46;100167.75;103824;1289;61465;-83
2023/07/01 10:46:07;;;;;;;;;;;;;;;27.56;38.34;100163.47;103766;1289;67306;-83
2023/07/01 10:48:34;;;;;;;;;;;;;;;27.55;38.32;100161.36;103877;1290;61176;-83
2023/07/01 10:51:09;;;;;;;;;;;;;;;27.55;38.40;100162.09;103936;1289;61283;-83
2023/07/01 10:53:54;;;;;;;;;;;;;;;27.55;38.23;100160.83;103742;1289;63950;-83
2023/07/01 10:56:19;;;;;;;;;;;;;;;27.55;38.11;100160.98;103908;1289;65968;-83
2023/07/01 10:58:44;;;;;;;;;;;;;;;27.55;38.10;100160.45;103879;1289;61685;-83
2023/07/01 11:01:30;;;;;;;;;;;;;;;27.55;38.38;100159.38;103929;1289;62343;-83
2023/07/01 11:03:56;;;;;;;;;;;;;;;27.55;38.26;100163.04;104154;1289;63933;-83
2023/07/01 11:06:22;;;;;;;;;;;;;;;27.55;38.19;100158.29;103917;1290;61381;-83
2023/07/01 11:08:48;;;;;;;;;;;;;;;27.55;38.08;100154.28;104166;1286;61314;-83
2023/07/01 11:11:23;;;;;;;;;;;;;;;27.55;38.19;100148.48;104373;1285;61361;-83
2023/07/01 11:14:02;;;;;;;;;;;;;;;27.55;38.00;100144.73;104344;1285;64900;-83
2023/07/01 11:16:28;;;;;;;;;;;;;;;27.55;38.06;100137.48;104352;1288;66697;-83
2023/07/01 11:18:54;;;;;;;;;;;;;;;27.55;38.01;100130.59;104303;1285;61300;-83
2023/07/01 11:21:22;;;;;;;;;;;;;;;27.55;38.14;100125.17;104549;1286;60079;-83
2023/07/01 11:23:51;;;;;;;;;;;;;;;27.55;37.88;100120.54;104335;1287;64589;-83
2023/07/01 11:26:21;;;;;;;;;;;;;;;27.55;37.84;100118.84;104254;1286;67946;-83
2023/07/01 11:28:47;;;;;;;;;;;;;;;27.55;37.87;100119.08;104140;1286;61414;-83
2023/07/01 11:31:17;;;;;;;;;;;;;;;27.55;37.97;100123.25;104209;1286;61638;-83
2023/07/01 11:33:44;;;;;;;;;;;;;;;27.55;37.87;100119.20;104648;1284;65337;-83
2023/07/01 11:36:11;;;;;;;;;;;;;;;27.55;37.73;100110.16;104679;1284;66889;-83
2023/07/01 11:38:37;;;;;;;;;;;;;;;27.55;37.63;100107.99;104240;1284;61386;-83
2023/07/01 11:41:02;;;;;;;;;;;;;;;27.56;37.74;100104.92;104704;1284;61551;-83
2023/07/01 11:43:28;;;;;;;;;;;;;;;27.55;37.77;100096.23;104312;1284;61335;-83
2023/07/01 11:45:54;;;;;;;;;;;;;;;27.55;37.57;100096.06;104196;1284;61379;-83
2023/07/01 11:48:31;;;;;;;;;;;;;;;27.56;37.42;100090.98;104278;1284;59944;-83
2023/07/01 11:50:57;;;;;;;;;;;;;;;27.56;37.66;100083.33;104565;1284;61731;-83
2023/07/01 11:53:22;;;;;;;;;;;;;;;27.56;37.50;100079.38;104483;1284;61428;-83
2023/07/01 11:55:48;;;;;;;;;;;;;;;27.56;37.42;100071.98;104209;1283;60304;-83
2023/07/01 11:58:26;;;;;;;;;;;;;;;27.56;37.30;100064.73;104328;1284;61353;-83
2023/07/01 12:00:52;;;;;;;;;;;;;;;27.56;37.53;100061.44;104295;1284;59949;-83
2023/07/01 12:03:17;;;;;;;;;;;;;;;27.57;37.59;100060.32;104591;1285;61623;-83
2023/07/01 12:05:46;;;;;;;;;;;;;;;27.57;37.34;100053.63;104381;1284;60029;-83
2023/07/01 12:08:11;;;;;;;;;;;;;;;27.57;37.19;100052.13;104327;1284;65959;-83
2023/07/01 12:10:38;;;;;;;;;;;;;;;27.57;37.37;100049.06;104532;1284;62355;-83
2023/07/01 12:13:04;;;;;;;;;;;;;;;27.57;37.16;100049.79;104254;1287;61169;-83
2023/07/01 12:15:31;;;;;;;;;;;;;;;27.57;37.31;100048.13;104388;1284;61290;-83
2023/07/01 12:18:15;;;;;;;;;;;;;;;27.57;37.27;100045.41;104504;1284;61424;-83
2023/07/01 12:20:41;;;;;;;;;;;;;;;27.58;37.26;100041.75;104374;1288;61244;-83
2023/07/01 12:23:06;;;;;;;;;;;;;;;27.59;36.90;100041.85;104443;1284;62158;-83